There are multiple Weather-warnings   Click here for more information


Meteo18 Weather Cam more information Meteo18 Weather Cam


warning for Thunderstorms more information blitzortung!


Rain radar more information rain snow radar


Visit our other weather sites:

Template documentation
and downloads

And another site



Weather Underground History page Text

Daily Summary for October 29, 2017 Units:  Both    English   Metric
« Previous Day
Next Day »
Daily Weekly Monthly Yearly Custom
  High: Low: Average:
Temperature: 55 °F /  12.8 °C 41.5 °F /  5.3 °C 49.8 °F /  9.9 °C
Dew Point: 53.1 °F /  11.7 °C 39.7 °F /  4.3 °C 48 °F /  8.9 °C
Humidity: 96 % 89 % 94 %
Wind Speed: 14 mph /  22.5 km/h - 3.5 mph /  5.6 km/h
Wind Gust: 17 mph /  27.4 km/h - -
Wind:- - SSW
Pressure: 30.3 in /  1027.3 hPa 30.2 in /  1021.2 hPa -
Precipitation: 0.02 in /  0.5 mm    
Historical Graphs
 
 
Tabular Data for October 29, 2017
Time Temperature Dew Point Pressure Wind Wind Speed Wind Gust Humidity Rainfall Rate (Hourly)
00:02 42.4 °F /  5.8 °C 40.3 °F /  4.6 °C 30.3 in /  1027.3 hPa Calm   1 mph /  1.6 km/h 92 % 0 in /  0.0 mm
00:12 41.9 °F /  5.5 °C 39.7 °F /  4.3 °C 30.3 in /  1027.3 hPa Calm   1 mph /  1.6 km/h 92 % 0 in /  0.0 mm
00:17 41.9 °F /  5.5 °C 40.1 °F /  4.5 °C 30.3 in /  1027.0 hPa Calm   1 mph /  1.6 km/h 93 % 0 in /  0.0 mm
00:22 41.7 °F /  5.4 °C 39.9 °F /  4.4 °C 30.3 in /  1027.0 hPa Calm   2 mph /  3.2 km/h 93 % 0 in /  0.0 mm
00:27 41.7 °F /  5.4 °C 39.9 °F /  4.4 °C 30.3 in /  1027.0 hPa Calm   2 mph /  3.2 km/h 93 % 0 in /  0.0 mm
00:32 41.5 °F /  5.3 °C 39.7 °F /  4.3 °C 30.3 in /  1027.0 hPa SSE 1 mph /  1.6 km/h 1 mph /  1.6 km/h 93 % 0 in /  0.0 mm
00:42 41.7 °F /  5.4 °C 40.1 °F /  4.5 °C 30.3 in /  1026.6 hPa SW 3 mph /  4.8 km/h 3 mph /  4.8 km/h 94 % 0 in /  0.0 mm
00:52 44.6 °F /  7.0 °C 42.6 °F /  5.9 °C 30.3 in /  1026.6 hPa SW 3 mph /  4.8 km/h 5 mph /  8.0 km/h 93 % 0 in /  0.0 mm
01:02 45.1 °F /  7.3 °C 42.4 °F /  5.8 °C 30.3 in /  1026.6 hPa SSW 1 mph /  1.6 km/h 6 mph /  9.7 km/h 90 % 0 in /  0.0 mm
01:12 44.2 °F /  6.8 °C 41.7 °F /  5.4 °C 30.3 in /  1026.6 hPa SSW 3 mph /  4.8 km/h 6 mph /  9.7 km/h 91 % 0 in /  0.0 mm
01:17 44.1 °F /  6.7 °C 41.9 °F /  5.5 °C 30.3 in /  1026.6 hPa SW 4 mph /  6.4 km/h -998.7 mph /  -1607.4 km/h 92 % 0 in /  0.0 mm
01:22 44.1 °F /  6.7 °C 41.9 °F /  5.5 °C 30.3 in /  1026.6 hPa SW 2 mph /  3.2 km/h -998.7 mph /  -1607.4 km/h 92 % 0 in /  0.0 mm
01:27 44.2 °F /  6.8 °C 42.1 °F /  5.6 °C 30.3 in /  1026.6 hPa WSW 2 mph /  3.2 km/h -998.7 mph /  -1607.4 km/h 92 % 0 in /  0.0 mm
01:32 44.4 °F /  6.9 °C 42.3 °F /  5.7 °C 30.3 in /  1026.6 hPa SW 2 mph /  3.2 km/h -998.7 mph /  -1607.4 km/h 92 % 0 in /  0.0 mm
01:37 44.8 °F /  7.1 °C 42.6 °F /  5.9 °C 30.3 in /  1026.6 hPa SW 1 mph /  1.6 km/h -998.7 mph /  -1607.4 km/h 92 % 0 in /  0.0 mm
01:42 45 °F /  7.2 °C 42.8 °F /  6.0 °C 30.3 in /  1026.6 hPa WSW 3 mph /  4.8 km/h -998.7 mph /  -1607.4 km/h 92 % 0 in /  0.0 mm
01:47 45.1 °F /  7.3 °C 42.6 °F /  5.9 °C 30.3 in /  1026.3 hPa SW 3 mph /  4.8 km/h -998.7 mph /  -1607.4 km/h 91 % 0 in /  0.0 mm
01:52 45.1 °F /  7.3 °C 42.6 °F /  5.9 °C 30.3 in /  1026.3 hPa WSW 2 mph /  3.2 km/h -998.7 mph /  -1607.4 km/h 91 % 0 in /  0.0 mm
01:57 45.3 °F /  7.4 °C 42.6 °F /  5.9 °C 30.3 in /  1026.3 hPa Calm   -998.7 mph /  -1607.4 km/h 90 % 0 in /  0.0 mm
02:02 45.3 °F /  7.4 °C 42.6 °F /  5.9 °C 30.3 in /  1026.3 hPa WSW 2 mph /  3.2 km/h -998.7 mph /  -1607.4 km/h 90 % 0 in /  0 mm
02:07 45.3 °F /  7.4 °C 42.6 °F /  5.9 °C 30.3 in /  1026.3 hPa Calm   -998.7 mph /  -1607.4 km/h 90 % 0 in /  0 mm
02:12 45.3 °F /  7.4 °C 42.8 °F /  6.0 °C 30.3 in /  1026.3 hPa WSW 2 mph /  3.2 km/h -998.7 mph /  -1607.4 km/h 91 % 0 in /  0 mm
02:17 45.7 °F /  7.6 °C 43 °F /  6.1 °C 30.3 in /  1026.0 hPa Calm   -998.7 mph /  -1607.4 km/h 90 % 0 in /  0 mm
02:22 45.7 °F /  7.6 °C 43.2 °F /  6.2 °C 30.3 in /  1026.0 hPa WNW 1 mph /  1.6 km/h -998.7 mph /  -1607.4 km/h 91 % 0 in /  0 mm
02:27 45.7 °F /  7.6 °C 43.2 °F /  6.2 °C 30.3 in /  1026.0 hPa Calm   -998.7 mph /  -1607.4 km/h 91 % 0 in /  0 mm
02:32 45.7 °F /  7.6 °C 43 °F /  6.1 °C 30.3 in /  1026.0 hPa Calm   -998.7 mph /  -1607.4 km/h 90 % 0 in /  0 mm
02:37 45.7 °F /  7.6 °C 43.2 °F /  6.2 °C 30.3 in /  1026.0 hPa Calm   -998.7 mph /  -1607.4 km/h 91 % 0 in /  0 mm
02:42 45.7 °F /  7.6 °C 43.2 °F /  6.2 °C 30.3 in /  1026.0 hPa Calm   -998.7 mph /  -1607.4 km/h 91 % 0 in /  0 mm
02:52 45.7 °F /  7.6 °C 43.2 °F /  6.2 °C 30.3 in /  1026.0 hPa Calm   -998.7 mph /  -1607.4 km/h 91 % 0 in /  0 mm
02:57 45.7 °F /  7.6 °C 43.2 °F /  6.2 °C 30.3 in /  1026.0 hPa Calm   -998.7 mph /  -1607.4 km/h 91 % 0 in /  0 mm
02:02 45.9 °F /  7.7 °C 43.3 °F /  6.3 °C 30.3 in /  1026.0 hPa Calm   -998.7 mph /  -1607.4 km/h 91 % 0 in /  0 mm
02:12 45.9 °F /  7.7 °C 43.3 °F /  6.3 °C 30.3 in /  1026.0 hPa Calm     91 % 0 in /  0.0 mm
02:17 45.9 °F /  7.7 °C 43.7 °F /  6.5 °C 30.3 in /  1026.0 hPa Calm   2 mph /  3.2 km/h 92 % 0 in /  0.0 mm
02:22 46 °F /  7.8 °C 43.9 °F /  6.6 °C 30.3 in /  1025.6 hPa Calm   2 mph /  3.2 km/h 92 % 0 in /  0.0 mm
02:27 46.2 °F /  7.9 °C 44.1 °F /  6.7 °C 30.3 in /  1025.6 hPa SSW 1 mph /  1.6 km/h 5 mph /  8.0 km/h 92 % 0 in /  0.0 mm
02:32 46.2 °F /  7.9 °C 43.7 °F /  6.5 °C 30.3 in /  1025.6 hPa SW 1 mph /  1.6 km/h 5 mph /  8.0 km/h 91 % 0 in /  0.0 mm
02:37 46 °F /  7.8 °C 43.9 °F /  6.6 °C 30.3 in /  1025.6 hPa SW 1 mph /  1.6 km/h 5 mph /  8.0 km/h 92 % 0 in /  0.0 mm
02:42 46.2 °F /  7.9 °C 44.1 °F /  6.7 °C 30.3 in /  1025.6 hPa Calm   5 mph /  8.0 km/h 92 % 0 in /  0.0 mm
02:47 46.2 °F /  7.9 °C 44.1 °F /  6.7 °C 30.3 in /  1025.6 hPa Calm   5 mph /  8.0 km/h 92 % 0 in /  0.0 mm
02:52 46.2 °F /  7.9 °C 44.1 °F /  6.7 °C 30.3 in /  1025.3 hPa SSW 1 mph /  1.6 km/h 5 mph /  8.0 km/h 92 % 0 in /  0.0 mm
02:57 46 °F /  7.8 °C 43.9 °F /  6.6 °C 30.3 in /  1025.3 hPa SSW 2 mph /  3.2 km/h 4 mph /  6.4 km/h 92 % 0 in /  0.0 mm
03:02 46 °F /  7.8 °C 43.9 °F /  6.6 °C 30.3 in /  1024.9 hPa SW 2 mph /  3.2 km/h 4 mph /  6.4 km/h 92 % 0 in /  0.0 mm
03:12 46 °F /  7.8 °C 44.1 °F /  6.7 °C 30.3 in /  1024.9 hPa WSW 4 mph /  6.4 km/h 5 mph /  8.0 km/h 93 % 0 in /  0.0 mm
03:17 46 °F /  7.8 °C 44.1 °F /  6.7 °C 30.3 in /  1024.6 hPa WSW 5 mph /  8.0 km/h 7 mph /  11.3 km/h 93 % 0 in /  0.0 mm
03:22 46.4 °F /  8.0 °C 44.4 °F /  6.9 °C 30.3 in /  1024.6 hPa WSW 4 mph /  6.4 km/h 7 mph /  11.3 km/h 93 % 0 in /  0.0 mm
03:27 46.6 °F /  8.1 °C 44.6 °F /  7.0 °C 30.3 in /  1024.6 hPa SW 5 mph /  8.0 km/h 8 mph /  12.9 km/h 93 % 0 in /  0.0 mm
03:32 46.6 °F /  8.1 °C 44.6 °F /  7.0 °C 30.3 in /  1024.6 hPa WSW 3 mph /  4.8 km/h 8 mph /  12.9 km/h 93 % 0 in /  0.0 mm
03:37 46.6 °F /  8.1 °C 44.6 °F /  7.0 °C 30.3 in /  1024.3 hPa WSW 7 mph /  11.3 km/h 7 mph /  11.3 km/h 93 % 0 in /  0.0 mm
03:42 46.6 °F /  8.1 °C 44.6 °F /  7.0 °C 30.3 in /  1024.3 hPa WSW 3 mph /  4.8 km/h 7 mph /  11.3 km/h 93 % 0 in /  0.0 mm
03:52 46.8 °F /  8.2 °C 44.8 °F /  7.1 °C 30.3 in /  1024.3 hPa SW 2 mph /  3.2 km/h 9 mph /  14.5 km/h 93 % 0 in /  0.0 mm
03:57 46.8 °F /  8.2 °C 45.1 °F /  7.3 °C 30.3 in /  1024.3 hPa SW 2 mph /  3.2 km/h 6 mph /  9.7 km/h 94 % 0 in /  0.0 mm
04:02 46.8 °F /  8.2 °C 45.1 °F /  7.3 °C 30.3 in /  1024.3 hPa SW 4 mph /  6.4 km/h 6 mph /  9.7 km/h 94 % 0 in /  0.0 mm
04:22 47.1 °F /  8.4 °C 45.5 °F /  7.5 °C 30.3 in /  1024.3 hPa SSW 1 mph /  1.6 km/h 5 mph /  8.0 km/h 94 % 0 in /  0.0 mm
04:27 46.2 °F /  7.9 °C 44.6 °F /  7.0 °C 30.3 in /  1024.3 hPa SW 3 mph /  4.8 km/h 3 mph /  4.8 km/h 94 % 0 in /  0.0 mm
08:37 48.9 °F /  9.4 °C 47.8 °F /  8.8 °C 30.2 in /  1023.6 hPa WSW 4 mph /  6.4 km/h -998.7 mph /  -1607.4 km/h 96 % 0 in /  0 mm
08:42 49.1 °F /  9.5 °C 48 °F /  8.9 °C 30.2 in /  1023.6 hPa WSW 4 mph /  6.4 km/h -998.7 mph /  -1607.4 km/h 96 % 0 in /  0 mm
08:47 49.3 °F /  9.6 °C 48.2 °F /  9.0 °C 30.2 in /  1023.9 hPa West 1 mph /  1.6 km/h 9 mph /  14.5 km/h 96 % 0 in /  0.0 mm
08:52 49.3 °F /  9.6 °C 48.2 °F /  9.0 °C 30.2 in /  1023.9 hPa SSW 3 mph /  4.8 km/h 9 mph /  14.5 km/h 96 % 0 in /  0.0 mm
09:02 49.3 °F /  9.6 °C 48.2 °F /  9.0 °C 30.2 in /  1023.9 hPa SW 3 mph /  4.8 km/h 8 mph /  12.9 km/h 96 % 0 in /  0.0 mm
09:07 49.5 °F /  9.7 °C 48.4 °F /  9.1 °C 30.2 in /  1023.9 hPa SW 2 mph /  3.2 km/h 7 mph /  11.3 km/h 96 % 0 in /  0.0 mm
09:12 49.5 °F /  9.7 °C 48.4 °F /  9.1 °C 30.2 in /  1023.9 hPa WSW 2 mph /  3.2 km/h 7 mph /  11.3 km/h 96 % 0 in /  0.0 mm
09:17 49.5 °F /  9.7 °C 48.4 °F /  9.1 °C 30.2 in /  1023.9 hPa Calm   6 mph /  9.7 km/h 96 % 0 in /  0.0 mm
09:22 49.6 °F /  9.8 °C 48.6 °F /  9.2 °C 30.2 in /  1023.9 hPa WSW 3 mph /  4.8 km/h 6 mph /  9.7 km/h 96 % 0 in /  0.0 mm
09:32 49.6 °F /  9.8 °C 48.6 °F /  9.2 °C 30.2 in /  1023.6 hPa SW 2 mph /  3.2 km/h 5 mph /  8.0 km/h 96 % 0 in /  0.0 mm
09:37 50 °F /  10.0 °C 48.9 °F /  9.4 °C 30.2 in /  1023.6 hPa WSW 4 mph /  6.4 km/h 7 mph /  11.3 km/h 96 % 0 in /  0.0 mm
09:42 50.2 °F /  10.1 °C 49.1 °F /  9.5 °C 30.2 in /  1023.6 hPa SW 2 mph /  3.2 km/h 7 mph /  11.3 km/h 96 % 0 in /  0.0 mm
09:47 50.2 °F /  10.1 °C 49.1 °F /  9.5 °C 30.2 in /  1023.6 hPa WSW 4 mph /  6.4 km/h 8 mph /  12.9 km/h 96 % 0 in /  0.0 mm
09:52 50.2 °F /  10.1 °C 49.1 °F /  9.5 °C 30.2 in /  1023.6 hPa SW 5 mph /  8.0 km/h 8 mph /  12.9 km/h 96 % 0 in /  0.0 mm
09:57 50.2 °F /  10.1 °C 49.1 °F /  9.5 °C 30.2 in /  1023.6 hPa WSW 4 mph /  6.4 km/h 8 mph /  12.9 km/h 96 % 0 in /  0.0 mm
10:02 50.4 °F /  10.2 °C 49.3 °F /  9.6 °C 30.2 in /  1023.2 hPa SSW 3 mph /  4.8 km/h 8 mph /  12.9 km/h 96 % 0 in /  0.0 mm
10:12 50.5 °F /  10.3 °C 49.5 °F /  9.7 °C 30.2 in /  1023.2 hPa WSW 6 mph /  9.7 km/h 8 mph /  12.9 km/h 96 % 0 in /  0.0 mm
10:17 50.7 °F /  10.4 °C 49.6 °F /  9.8 °C 30.2 in /  1023.2 hPa WSW 3 mph /  4.8 km/h 9 mph /  14.5 km/h 96 % 0 in /  0.0 mm
10:22 50.7 °F /  10.4 °C 49.6 °F /  9.8 °C 30.2 in /  1023.2 hPa West 5 mph /  8.0 km/h 9 mph /  14.5 km/h 96 % 0 in /  0.0 mm
10:27 50.9 °F /  10.5 °C 49.8 °F /  9.9 °C 30.2 in /  1023.2 hPa WSW 3 mph /  4.8 km/h 9 mph /  14.5 km/h 96 % 0 in /  0.0 mm
10:32 50.9 °F /  10.5 °C 49.8 °F /  9.9 °C 30.2 in /  1023.2 hPa West 8 mph /  12.9 km/h 9 mph /  14.5 km/h 96 % 0 in /  0.0 mm
10:42 51.1 °F /  10.6 °C 50 °F /  10.0 °C 30.2 in /  1023.2 hPa WSW 2 mph /  3.2 km/h 10 mph /  16.1 km/h 96 % 0 in /  0.0 mm
10:47 51.3 °F /  10.7 °C 50.2 °F /  10.1 °C 30.2 in /  1023.2 hPa SW 5 mph /  8.0 km/h 10 mph /  16.1 km/h 96 % 0 in /  0.0 mm
10:52 51.4 °F /  10.8 °C 50.4 °F /  10.2 °C 30.2 in /  1023.2 hPa West 3 mph /  4.8 km/h 10 mph /  16.1 km/h 96 % 0 in /  0.0 mm
10:57 51.4 °F /  10.8 °C 50.4 °F /  10.2 °C 30.2 in /  1022.9 hPa West 7 mph /  11.3 km/h 8 mph /  12.9 km/h 96 % 0 in /  0.0 mm
11:02 51.6 °F /  10.9 °C 50.5 °F /  10.3 °C 30.2 in /  1022.9 hPa West 5 mph /  8.0 km/h 8 mph /  12.9 km/h 96 % 0 in /  0.0 mm
11:12 51.6 °F /  10.9 °C 50.5 °F /  10.3 °C 30.2 in /  1022.9 hPa SW 2 mph /  3.2 km/h 12 mph /  19.3 km/h 96 % 0 in /  0.0 mm
11:17 51.8 °F /  11.0 °C 50.7 °F /  10.4 °C 30.2 in /  1022.9 hPa WSW 6 mph /  9.7 km/h 12 mph /  19.3 km/h 96 % 0 in /  0.0 mm
11:22 51.6 °F /  10.9 °C 50.5 °F /  10.3 °C 30.2 in /  1022.6 hPa WSW 4 mph /  6.4 km/h 12 mph /  19.3 km/h 96 % 0 in /  0.0 mm
11:32 51.8 °F /  11.0 °C 50.7 °F /  10.4 °C 30.2 in /  1022.6 hPa West 5 mph /  8.0 km/h 11 mph /  17.7 km/h 96 % 0 in /  0.0 mm
11:42 52 °F /  11.1 °C 50.9 °F /  10.5 °C 30.2 in /  1022.6 hPa SSW 4 mph /  6.4 km/h 12 mph /  19.3 km/h 96 % 0.01 in /  0.3 mm
11:52 52.2 °F /  11.2 °C 51.1 °F /  10.6 °C 30.2 in /  1022.6 hPa West 4 mph /  6.4 km/h 11 mph /  17.7 km/h 96 % 0.01 in /  0.3 mm
11:57 52.3 °F /  11.3 °C 51.3 °F /  10.7 °C 30.2 in /  1022.9 hPa WNW 3 mph /  4.8 km/h 11 mph /  17.7 km/h 96 % 0.01 in /  0.3 mm
12:02 52.3 °F /  11.3 °C 50.9 °F /  10.5 °C 30.2 in /  1022.9 hPa West 6 mph /  9.7 km/h 11 mph /  17.7 km/h 95 % 0.01 in /  0.3 mm
12:07 52.5 °F /  11.4 °C 51.1 °F /  10.6 °C 30.2 in /  1022.6 hPa SW 6 mph /  9.7 km/h 11 mph /  17.7 km/h 95 % 0.01 in /  0.3 mm
12:12 52.5 °F /  11.4 °C 51.1 °F /  10.6 °C 30.2 in /  1022.6 hPa WSW 4 mph /  6.4 km/h 11 mph /  17.7 km/h 95 % 0.01 in /  0.3 mm
12:17 52.9 °F /  11.6 °C 51.4 °F /  10.8 °C 30.2 in /  1022.9 hPa WNW 1 mph /  1.6 km/h 9 mph /  14.5 km/h 95 % 0.01 in /  0.3 mm
12:22 52.9 °F /  11.6 °C 51.4 °F /  10.8 °C 30.2 in /  1022.9 hPa West 6 mph /  9.7 km/h 9 mph /  14.5 km/h 95 % 0.01 in /  0.3 mm
12:32 52.9 °F /  11.6 °C 51.4 °F /  10.8 °C 30.2 in /  1022.6 hPa WSW 5 mph /  8.0 km/h 7 mph /  11.3 km/h 95 % 0 in /  0.0 mm
12:37 53.1 °F /  11.7 °C 51.6 °F /  10.9 °C 30.2 in /  1022.6 hPa WSW 2 mph /  3.2 km/h 7 mph /  11.3 km/h 95 % 0 in /  0.0 mm
12:42 53.1 °F /  11.7 °C 51.6 °F /  10.9 °C 30.2 in /  1022.6 hPa West 4 mph /  6.4 km/h 7 mph /  11.3 km/h 95 % 0 in /  0.0 mm
12:52 53.2 °F /  11.8 °C 51.8 °F /  11.0 °C 30.2 in /  1022.2 hPa WNW 3 mph /  4.8 km/h 7 mph /  11.3 km/h 95 % 0 in /  0.0 mm
13:02 53.4 °F /  11.9 °C 52 °F /  11.1 °C 30.2 in /  1022.2 hPa West 4 mph /  6.4 km/h 9 mph /  14.5 km/h 95 % 0 in /  0.0 mm
13:12 53.8 °F /  12.1 °C 52.2 °F /  11.2 °C 30.2 in /  1022.2 hPa West 6 mph /  9.7 km/h 9 mph /  14.5 km/h 94 % 0 in /  0.0 mm
13:22 54.1 °F /  12.3 °C 52.5 °F /  11.4 °C 30.2 in /  1021.9 hPa WNW 9 mph /  14.5 km/h 9 mph /  14.5 km/h 94 % 0 in /  0.0 mm
13:32 54.5 °F /  12.5 °C 52.2 °F /  11.2 °C 30.2 in /  1021.9 hPa WNW 13 mph /  20.9 km/h 13 mph /  20.9 km/h 92 % 0 in /  0.0 mm
13:42 54.3 °F /  12.4 °C 52 °F /  11.1 °C 30.2 in /  1021.9 hPa WNW 8 mph /  12.9 km/h 13 mph /  20.9 km/h 92 % 0 in /  0.0 mm
13:47 54.3 °F /  12.4 °C 52 °F /  11.1 °C 30.2 in /  1021.9 hPa West 7 mph /  11.3 km/h 13 mph /  20.9 km/h 92 % 0 in /  0.0 mm
13:57 54.3 °F /  12.4 °C 52.3 °F /  11.3 °C 30.2 in /  1021.9 hPa West 5 mph /  8.0 km/h 15 mph /  24.1 km/h 93 % 0 in /  0.0 mm
14:07 54.1 °F /  12.3 °C 52.5 °F /  11.4 °C 30.2 in /  1021.9 hPa West 6 mph /  9.7 km/h 13 mph /  20.9 km/h 94 % 0 in /  0.0 mm
14:12 54 °F /  12.2 °C 52.3 °F /  11.3 °C 30.2 in /  1021.9 hPa WNW 8 mph /  12.9 km/h 10 mph /  16.1 km/h 94 % 0 in /  0.0 mm
14:17 54 °F /  12.2 °C 52.3 °F /  11.3 °C 30.2 in /  1021.9 hPa WNW 8 mph /  12.9 km/h 10 mph /  16.1 km/h 94 % 0 in /  0.0 mm
14:22 54 °F /  12.2 °C 52.3 °F /  11.3 °C 30.2 in /  1021.6 hPa WNW 4 mph /  6.4 km/h 11 mph /  17.7 km/h 94 % 0 in /  0.0 mm
14:27 54.1 °F /  12.3 °C 52.2 °F /  11.2 °C 30.2 in /  1021.6 hPa WNW 9 mph /  14.5 km/h 11 mph /  17.7 km/h 93 % 0 in /  0.0 mm
14:32 54.1 °F /  12.3 °C 52.5 °F /  11.4 °C 30.2 in /  1021.6 hPa West 1 mph /  1.6 km/h 10 mph /  16.1 km/h 94 % 0 in /  0.0 mm
14:37 54.1 °F /  12.3 °C 52.2 °F /  11.2 °C 30.2 in /  1021.6 hPa West 5 mph /  8.0 km/h 10 mph /  16.1 km/h 93 % 0 in /  0.0 mm
14:42 54.1 °F /  12.3 °C 52.5 °F /  11.4 °C 30.2 in /  1021.6 hPa West 1 mph /  1.6 km/h 11 mph /  17.7 km/h 94 % 0 in /  0.0 mm
14:52 54.3 °F /  12.4 °C 52.7 °F /  11.5 °C 30.2 in /  1021.6 hPa West 6 mph /  9.7 km/h 10 mph /  16.1 km/h 94 % 0 in /  0.0 mm
14:57 54.3 °F /  12.4 °C 52.7 °F /  11.5 °C 30.2 in /  1021.6 hPa West 2 mph /  3.2 km/h 10 mph /  16.1 km/h 94 % 0 in /  0.0 mm
15:02 54.5 °F /  12.5 °C 52.5 °F /  11.4 °C 30.2 in /  1021.6 hPa West 4 mph /  6.4 km/h 10 mph /  16.1 km/h 93 % 0 in /  0.0 mm
15:07 54.3 °F /  12.4 °C 52.3 °F /  11.3 °C 30.2 in /  1021.6 hPa West 2 mph /  3.2 km/h 10 mph /  16.1 km/h 93 % 0 in /  0.0 mm
15:12 54.5 °F /  12.5 °C 52.5 °F /  11.4 °C 30.2 in /  1021.6 hPa WSW 3 mph /  4.8 km/h 8 mph /  12.9 km/h 93 % 0 in /  0.0 mm
15:17 54.5 °F /  12.5 °C 52.5 °F /  11.4 °C 30.2 in /  1021.6 hPa West 3 mph /  4.8 km/h 8 mph /  12.9 km/h 93 % 0 in /  0.0 mm
15:22 54.5 °F /  12.5 °C 52.9 °F /  11.6 °C 30.2 in /  1021.6 hPa West 2 mph /  3.2 km/h 9 mph /  14.5 km/h 94 % 0 in /  0.0 mm
15:32 54.5 °F /  12.5 °C 52.9 °F /  11.6 °C 30.2 in /  1021.6 hPa WNW 6 mph /  9.7 km/h 9 mph /  14.5 km/h 94 % 0 in /  0.0 mm
15:42 54.9 °F /  12.7 °C 52.9 °F /  11.6 °C 30.2 in /  1021.6 hPa West 3 mph /  4.8 km/h 10 mph /  16.1 km/h 93 % 0 in /  0.0 mm
15:52 55 °F /  12.8 °C 53.1 °F /  11.7 °C 30.2 in /  1021.6 hPa West 5 mph /  8.0 km/h 10 mph /  16.1 km/h 93 % 0 in /  0.0 mm
16:02 55 °F /  12.8 °C 52.7 °F /  11.5 °C 30.2 in /  1021.6 hPa West 8 mph /  12.9 km/h 11 mph /  17.7 km/h 92 % 0 in /  0.0 mm
16:12 55 °F /  12.8 °C 52.7 °F /  11.5 °C 30.2 in /  1021.6 hPa WNW 3 mph /  4.8 km/h 9 mph /  14.5 km/h 92 % 0 in /  0.0 mm
16:17 55 °F /  12.8 °C 52.7 °F /  11.5 °C 30.2 in /  1021.6 hPa West 3 mph /  4.8 km/h 9 mph /  14.5 km/h 92 % 0 in /  0.0 mm
16:27 55 °F /  12.8 °C 52.7 °F /  11.5 °C 30.2 in /  1021.6 hPa WNW 4 mph /  6.4 km/h 9 mph /  14.5 km/h 92 % 0 in /  0.0 mm
16:32 55 °F /  12.8 °C 52.7 °F /  11.5 °C 30.2 in /  1021.6 hPa WNW 3 mph /  4.8 km/h 9 mph /  14.5 km/h 92 % 0 in /  0.0 mm
16:37 55 °F /  12.8 °C 53.1 °F /  11.7 °C 30.2 in /  1021.6 hPa West 3 mph /  4.8 km/h 8 mph /  12.9 km/h 93 % 0 in /  0.0 mm
16:42 55 °F /  12.8 °C 53.1 °F /  11.7 °C 30.2 in /  1021.6 hPa West 6 mph /  9.7 km/h 8 mph /  12.9 km/h 93 % 0 in /  0.0 mm
16:47 55 °F /  12.8 °C 53.1 °F /  11.7 °C 30.2 in /  1021.6 hPa SW 3 mph /  4.8 km/h 8 mph /  12.9 km/h 93 % 0 in /  0.0 mm
16:52 55 °F /  12.8 °C 53.1 °F /  11.7 °C 30.2 in /  1021.6 hPa West 9 mph /  14.5 km/h 9 mph /  14.5 km/h 93 % 0 in /  0.0 mm
16:57 54.9 °F /  12.7 °C 52.9 °F /  11.6 °C 30.2 in /  1021.2 hPa West 8 mph /  12.9 km/h 11 mph /  17.7 km/h 93 % 0 in /  0.0 mm
17:02 54.9 °F /  12.7 °C 52.9 °F /  11.6 °C 30.2 in /  1021.2 hPa West 3 mph /  4.8 km/h 11 mph /  17.7 km/h 93 % 0 in /  0.0 mm
17:12 54.7 °F /  12.6 °C 53.1 °F /  11.7 °C 30.2 in /  1021.2 hPa West 5 mph /  8.0 km/h 11 mph /  17.7 km/h 94 % 0 in /  0.0 mm
17:17 54.7 °F /  12.6 °C 53.1 °F /  11.7 °C 30.2 in /  1021.2 hPa West 5 mph /  8.0 km/h 9 mph /  14.5 km/h 94 % 0 in /  0.0 mm
17:22 54.7 °F /  12.6 °C 53.1 °F /  11.7 °C 30.2 in /  1021.6 hPa WSW 4 mph /  6.4 km/h 9 mph /  14.5 km/h 94 % 0 in /  0.0 mm
17:27 54.7 °F /  12.6 °C 53.1 °F /  11.7 °C 30.2 in /  1021.2 hPa NW 6 mph /  9.7 km/h 9 mph /  14.5 km/h 94 % 0 in /  0.0 mm
17:32 54.5 °F /  12.5 °C 52.9 °F /  11.6 °C 30.2 in /  1021.2 hPa WNW 4 mph /  6.4 km/h 9 mph /  14.5 km/h 94 % 0 in /  0.0 mm
17:37 54.5 °F /  12.5 °C 52.9 °F /  11.6 °C 30.2 in /  1021.6 hPa West 5 mph /  8.0 km/h 9 mph /  14.5 km/h 94 % 0 in /  0.0 mm
17:42 54.5 °F /  12.5 °C 52.9 °F /  11.6 °C 30.2 in /  1021.6 hPa West 4 mph /  6.4 km/h 9 mph /  14.5 km/h 94 % 0 in /  0.0 mm
17:47 54.7 °F /  12.6 °C 53.1 °F /  11.7 °C 30.2 in /  1021.6 hPa WNW 3 mph /  4.8 km/h 8 mph /  12.9 km/h 94 % 0 in /  0.0 mm
17:52 54.3 °F /  12.4 °C 52 °F /  11.1 °C 30.2 in /  1021.9 hPa NNE 8 mph /  12.9 km/h 8 mph /  12.9 km/h 92 % 0 in /  0.0 mm
18:02 52.9 °F /  11.6 °C 50.9 °F /  10.5 °C 30.2 in /  1021.9 hPa NNE 10 mph /  16.1 km/h 16 mph /  25.7 km/h 93 % 0.02 in /  0.5 mm
18:12 52.3 °F /  11.3 °C 50.7 °F /  10.4 °C 30.2 in /  1022.2 hPa NNW 8 mph /  12.9 km/h 16 mph /  25.7 km/h 94 % 0.02 in /  0.5 mm
18:17 51.8 °F /  11.0 °C 50.2 °F /  10.1 °C 30.2 in /  1022.2 hPa NNE 14 mph /  22.5 km/h 15 mph /  24.1 km/h 94 % 0.02 in /  0.5 mm
18:27 51.1 °F /  10.6 °C 49.5 °F /  9.7 °C 30.2 in /  1022.6 hPa NW 8 mph /  12.9 km/h 17 mph /  27.4 km/h 94 % 0.02 in /  0.5 mm
18:37 50.7 °F /  10.4 °C 49.3 °F /  9.6 °C 30.2 in /  1022.6 hPa ENE 7 mph /  11.3 km/h 17 mph /  27.4 km/h 95 % 0.02 in /  0.5 mm
18:42 50.7 °F /  10.4 °C 49.3 °F /  9.6 °C 30.2 in /  1022.9 hPa North 6 mph /  9.7 km/h 15 mph /  24.1 km/h 95 % 0.02 in /  0.5 mm
18:47 50.5 °F /  10.3 °C 49.1 °F /  9.5 °C 30.2 in /  1022.9 hPa NE 5 mph /  8.0 km/h 15 mph /  24.1 km/h 95 % 0.02 in /  0.5 mm
19:02 50.4 °F /  10.2 °C 48.9 °F /  9.4 °C 30.2 in /  1023.2 hPa NNE 9 mph /  14.5 km/h 10 mph /  16.1 km/h 95 % 0 in /  0.0 mm
19:12 50.4 °F /  10.2 °C 48.9 °F /  9.4 °C 30.2 in /  1022.9 hPa NE 3 mph /  4.8 km/h 10 mph /  16.1 km/h 95 % 0 in /  0.0 mm
19:22 50.4 °F /  10.2 °C 48.9 °F /  9.4 °C 30.2 in /  1022.9 hPa NE 5 mph /  8.0 km/h 9 mph /  14.5 km/h 95 % 0 in /  0.0 mm
19:27 50.4 °F /  10.2 °C 48.9 °F /  9.4 °C 30.2 in /  1022.9 hPa NE 4 mph /  6.4 km/h 6 mph /  9.7 km/h 95 % 0 in /  0.0 mm
19:32 50.4 °F /  10.2 °C 48.9 °F /  9.4 °C 30.2 in /  1022.9 hPa NNE 2 mph /  3.2 km/h 6 mph /  9.7 km/h 95 % 0 in /  0.0 mm
19:37 50.4 °F /  10.2 °C 48.9 °F /  9.4 °C 30.2 in /  1023.2 hPa Calm   6 mph /  9.7 km/h 95 % 0 in /  0.0 mm
19:42 50.2 °F /  10.1 °C 48.7 °F /  9.3 °C 30.2 in /  1023.2 hPa NE 2 mph /  3.2 km/h 6 mph /  9.7 km/h 95 % 0 in /  0.0 mm
19:47 50.2 °F /  10.1 °C 48.7 °F /  9.3 °C 30.2 in /  1023.2 hPa WNW 3 mph /  4.8 km/h 6 mph /  9.7 km/h 95 % 0 in /  0.0 mm
19:52 50.2 °F /  10.1 °C 48.7 °F /  9.3 °C 30.2 in /  1023.2 hPa Calm   6 mph /  9.7 km/h 95 % 0 in /  0.0 mm
19:57 50.2 °F /  10.1 °C 48.7 °F /  9.3 °C 30.2 in /  1023.2 hPa North 1 mph /  1.6 km/h 6 mph /  9.7 km/h 95 % 0 in /  0.0 mm
20:02 50.2 °F /  10.1 °C 48.7 °F /  9.3 °C 30.2 in /  1023.2 hPa North 3 mph /  4.8 km/h 6 mph /  9.7 km/h 95 % 0 in /  0.0 mm
20:12 50.2 °F /  10.1 °C 48.7 °F /  9.3 °C 30.2 in /  1023.2 hPa NNE 2 mph /  3.2 km/h 4 mph /  6.4 km/h 95 % 0 in /  0.0 mm
20:17 50.2 °F /  10.1 °C 48.7 °F /  9.3 °C 30.2 in /  1023.2 hPa NNE 3 mph /  4.8 km/h 4 mph /  6.4 km/h 95 % 0 in /  0.0 mm
20:22 50.2 °F /  10.1 °C 48.7 °F /  9.3 °C 30.2 in /  1023.2 hPa NNW 1 mph /  1.6 km/h 4 mph /  6.4 km/h 95 % 0 in /  0.0 mm
20:27 50.2 °F /  10.1 °C 48.7 °F /  9.3 °C 30.2 in /  1023.2 hPa NE 2 mph /  3.2 km/h 6 mph /  9.7 km/h 95 % 0 in /  0.0 mm
20:32 50.2 °F /  10.1 °C 48.7 °F /  9.3 °C 30.2 in /  1023.2 hPa North 3 mph /  4.8 km/h 6 mph /  9.7 km/h 95 % 0 in /  0.0 mm
20:37 50.2 °F /  10.1 °C 48.7 °F /  9.3 °C 30.2 in /  1023.2 hPa Calm   5 mph /  8.0 km/h 95 % 0 in /  0.0 mm
20:42 50 °F /  10.0 °C 48.6 °F /  9.2 °C 30.2 in /  1023.2 hPa North 4 mph /  6.4 km/h 5 mph /  8.0 km/h 95 % 0 in /  0.0 mm
20:52 50 °F /  10.0 °C 48.6 °F /  9.2 °C 30.2 in /  1023.6 hPa NNE 2 mph /  3.2 km/h 6 mph /  9.7 km/h 95 % 0 in /  0.0 mm
20:57 50 °F /  10.0 °C 48.6 °F /  9.2 °C 30.2 in /  1023.6 hPa NNE 3 mph /  4.8 km/h 7 mph /  11.3 km/h 95 % 0 in /  0.0 mm
21:02 50 °F /  10.0 °C 48.6 °F /  9.2 °C 30.2 in /  1023.6 hPa NE 4 mph /  6.4 km/h 7 mph /  11.3 km/h 95 % 0 in /  0.0 mm
21:12 50 °F /  10.0 °C 48.6 °F /  9.2 °C 30.2 in /  1023.6 hPa North 3 mph /  4.8 km/h 7 mph /  11.3 km/h 95 % 0 in /  0.0 mm
21:17 50 °F /  10.0 °C 48.6 °F /  9.2 °C 30.2 in /  1023.6 hPa North 4 mph /  6.4 km/h 7 mph /  11.3 km/h 95 % 0 in /  0.0 mm
21:22 50 °F /  10.0 °C 48.6 °F /  9.2 °C 30.2 in /  1023.6 hPa NNE 2 mph /  3.2 km/h 7 mph /  11.3 km/h 95 % 0 in /  0.0 mm
21:32 50 °F /  10.0 °C 48.4 °F /  9.1 °C 30.2 in /  1023.9 hPa NNE 4 mph /  6.4 km/h 9 mph /  14.5 km/h 94 % 0 in /  0.0 mm
21:37 50 °F /  10.0 °C 48.4 °F /  9.1 °C 30.2 in /  1023.9 hPa NNE 5 mph /  8.0 km/h 10 mph /  16.1 km/h 94 % 0 in /  0.0 mm
21:42 50 °F /  10.0 °C 48.4 °F /  9.1 °C 30.2 in /  1023.9 hPa NE 5 mph /  8.0 km/h 10 mph /  16.1 km/h 94 % 0 in /  0.0 mm
21:47 50 °F /  10.0 °C 48.4 °F /  9.1 °C 30.2 in /  1023.9 hPa ENE 2 mph /  3.2 km/h 10 mph /  16.1 km/h 94 % 0 in /  0.0 mm
21:52 49.8 °F /  9.9 °C 48.2 °F /  9.0 °C 30.2 in /  1023.9 hPa NNE 3 mph /  4.8 km/h 8 mph /  12.9 km/h 94 % 0 in /  0.0 mm
21:57 49.8 °F /  9.9 °C 48.2 °F /  9.0 °C 30.2 in /  1023.9 hPa NNE 3 mph /  4.8 km/h 9 mph /  14.5 km/h 94 % 0 in /  0.0 mm
22:02 49.8 °F /  9.9 °C 48.2 °F /  9.0 °C 30.2 in /  1023.9 hPa NNE 5 mph /  8.0 km/h 9 mph /  14.5 km/h 94 % 0 in /  0.0 mm
22:12 49.5 °F /  9.7 °C 47.5 °F /  8.6 °C 30.2 in /  1023.9 hPa NE 2 mph /  3.2 km/h 12 mph /  19.3 km/h 93 % 0 in /  0.0 mm
22:22 49.3 °F /  9.6 °C 47.3 °F /  8.5 °C 30.2 in /  1023.9 hPa NNE 3 mph /  4.8 km/h 12 mph /  19.3 km/h 93 % 0 in /  0.0 mm
22:32 48.9 °F /  9.4 °C 46.9 °F /  8.3 °C 30.2 in /  1023.9 hPa NE 3 mph /  4.8 km/h 9 mph /  14.5 km/h 93 % 0 in /  0.0 mm
22:37 48.7 °F /  9.3 °C 46.8 °F /  8.2 °C 30.2 in /  1023.9 hPa NNE 4 mph /  6.4 km/h 11 mph /  17.7 km/h 93 % 0 in /  0.0 mm
22:42 48.6 °F /  9.2 °C 46.6 °F /  8.1 °C 30.2 in /  1023.9 hPa NE 8 mph /  12.9 km/h 11 mph /  17.7 km/h 93 % 0 in /  0.0 mm
22:47 48.4 °F /  9.1 °C 46.2 °F /  7.9 °C 30.2 in /  1023.9 hPa NE 2 mph /  3.2 km/h 9 mph /  14.5 km/h 92 % 0 in /  0.0 mm
22:52 48 °F /  8.9 °C 45.9 °F /  7.7 °C 30.2 in /  1023.9 hPa NNE 4 mph /  6.4 km/h 8 mph /  12.9 km/h 92 % 0 in /  0.0 mm
23:02 47.7 °F /  8.7 °C 45.1 °F /  7.3 °C 30.2 in /  1023.9 hPa NNE 1 mph /  1.6 km/h 10 mph /  16.1 km/h 91 % 0 in /  0.0 mm
23:12 47.1 °F /  8.4 °C 44.6 °F /  7.0 °C 30.2 in /  1023.9 hPa NNW 1 mph /  1.6 km/h 10 mph /  16.1 km/h 91 % 0 in /  0.0 mm
23:17 47.1 °F /  8.4 °C 44.6 °F /  7.0 °C 30.3 in /  1024.3 hPa NNW 1 mph /  1.6 km/h 8 mph /  12.9 km/h 91 % 0 in /  0.0 mm
23:22 46.9 °F /  8.3 °C 44.4 °F /  6.9 °C 30.3 in /  1024.3 hPa NNW 1 mph /  1.6 km/h 8 mph /  12.9 km/h 91 % 0 in /  0.0 mm
23:27 46.8 °F /  8.2 °C 44.1 °F /  6.7 °C 30.3 in /  1024.3 hPa NNW 3 mph /  4.8 km/h 9 mph /  14.5 km/h 90 % 0 in /  0.0 mm
23:32 46.8 °F /  8.2 °C 44.1 °F /  6.7 °C 30.3 in /  1024.3 hPa NNW 4 mph /  6.4 km/h 9 mph /  14.5 km/h 90 % 0 in /  0.0 mm
23:37 46.8 °F /  8.2 °C 43.7 °F /  6.5 °C 30.3 in /  1024.3 hPa NNE 2 mph /  3.2 km/h 9 mph /  14.5 km/h 89 % 0 in /  0.0 mm
23:42 46.8 °F /  8.2 °C 43.7 °F /  6.5 °C 30.3 in /  1024.3 hPa NNW 8 mph /  12.9 km/h 9 mph /  14.5 km/h 89 % 0 in /  0.0 mm
23:52 46.6 °F /  8.1 °C 43.5 °F /  6.4 °C 30.3 in /  1024.3 hPa North 4 mph /  6.4 km/h 10 mph /  16.1 km/h 89 % 0 in /  0.0 mm
23:57 46.2 °F /  7.9 °C 43.2 °F /  6.2 °C 30.3 in /  1024.3 hPa NNW 7 mph /  11.3 km/h 10 mph /  16.1 km/h 89 % 0 in /  0.0 mm
Meteo18
Compliments of Weather Underground - 4 mb

Script developed by  Jim McMurry - jmcmurry@mwt.net Adapted for the template by  Wim van der Kuil - Leuven-Template.eu

You find our weather info also at:

European Weather Network

Weather Underground

Equipment we use:

Weather-station
Davis Vue

Weather-program
Meteohub

Weather-server
Raspberry PI 2 B+

Provider
1 and 1

Davis Vue

Meteohub

Raspberry PI 2 B+

1 and 1